Time;durP1;ratioP1;P1;durP2;ratioP2;P2;SDS_P1;SDS_P2;PMS_P1;PMS_P2;Temp;Humidity;BMP_temperature;BMP_pressure;BME280_temperature;BME280_humidity;BME280_pressure;Samples;Min_cycle;Max_cycle;Signal;HPM_P1;HPM_P2
2022/06/06 00:01:41;;;;;;;3.35;0.70;;;;;;;27.59;54.65;100364.94;5106403;28;20089;-72
2022/06/06 00:04:06;;;;;;;2.38;0.63;;;;;;;27.58;54.85;100368.66;5102321;28;20036;-72
2022/06/06 00:06:32;;;;;;;4.60;0.80;;;;;;;27.58;54.76;100369.47;5103107;28;20451;-71
2022/06/06 00:08:57;;;;;;;2.90;0.65;;;;;;;27.58;54.88;100374.00;5103575;28;20034;-72
2022/06/06 00:11:24;;;;;;;2.08;0.70;;;;;;;27.57;54.79;100367.84;5106818;28;20100;-73
2022/06/06 00:13:50;;;;;;;2.60;0.70;;;;;;;27.57;54.34;100362.50;5105634;28;20059;-72
2022/06/06 00:16:15;;;;;;;2.17;0.57;;;;;;;27.57;54.73;100364.38;5104181;28;20024;-71
2022/06/06 00:18:41;;;;;;;1.40;0.60;;;;;;;27.58;54.41;100363.31;5105457;28;20088;-70
2022/06/06 00:21:09;;;;;;;2.13;0.60;;;;;;;27.58;54.45;100363.31;5107677;28;20072;-71
2022/06/06 00:23:36;;;;;;;2.47;1.10;;;;;;;27.57;54.69;100377.75;5107916;28;20035;-72
2022/06/06 00:26:07;;;;;;;1.88;0.73;;;;;;;27.57;54.27;100381.22;5106644;28;20399;-71
2022/06/06 00:28:33;;;;;;;2.65;0.57;;;;;;;27.57;54.66;100378.56;5105264;28;20536;-71
2022/06/06 00:34:48;;;;;;;1.00;0.50;;;;;;;27.57;54.55;100375.88;5104282;28;20040;-71
2022/06/06 00:36:31;;;;;;;4.50;0.52;;;;;;;27.56;54.16;100384.16;5106382;28;20049;-72
2022/06/06 00:38:56;;;;;;;4.97;0.50;;;;;;;27.56;54.64;100384.16;5104115;28;20032;-73
2022/06/06 00:41:22;;;;;;;1.30;0.50;;;;;;;27.56;54.56;100379.63;5103867;28;20375;-72
2022/06/06 00:44:11;;;;;;;2.67;0.50;;;;;;;27.54;54.32;100380.94;5107463;28;20020;-72
2022/06/06 00:46:42;;;;;;;1.45;0.57;;;;;;;27.54;54.48;100378.25;5108252;28;20024;-72
2022/06/06 00:49:17;;;;;;;2.40;0.52;;;;;;;27.53;54.65;100388.16;5106032;28;20474;-72
2022/06/06 00:51:44;;;;;;;1.90;0.45;;;;;;;27.54;54.27;100384.41;5102930;28;20032;-72
2022/06/06 00:54:10;;;;;;;2.40;0.52;;;;;;;27.55;54.25;100393.25;5107212;28;20142;-72
2022/06/06 00:56:48;;;;;;;1.83;0.50;;;;;;;27.54;54.66;100389.78;5105477;28;20099;-72
2022/06/06 00:59:19;;;;;;;2.10;0.73;;;;;;;27.55;54.31;100393.25;5104485;28;20027;-73
2022/06/06 01:01:45;;;;;;;1.67;0.40;;;;;;;27.55;54.43;100379.88;5107462;28;20035;-72
2022/06/06 01:04:14;;;;;;;1.60;0.50;;;;;;;27.55;54.51;100388.72;5104406;28;20024;-73
2022/06/06 01:06:44;;;;;;;1.35;0.40;;;;;;;27.55;54.53;100390.56;5105700;28;20062;-71
2022/06/06 01:09:11;;;;;;;1.75;0.50;;;;;;;27.54;54.40;100367.56;5105126;28;20028;-72
2022/06/06 01:11:42;;;;;;;2.85;0.40;;;;;;;27.54;54.32;100363.00;5105341;28;20130;-71
2022/06/06 01:14:10;;;;;;;1.50;0.40;;;;;;;27.54;54.39;100351.50;5107191;28;20036;-72
2022/06/06 01:16:38;;;;;;;4.45;0.60;;;;;;;27.52;54.24;100332.22;5104454;28;20043;-71
2022/06/06 01:19:19;;;;;;;1.85;0.40;;;;;;;27.51;54.18;100327.94;5099006;28;20112;-72
2022/06/06 01:22:02;;;;;;;2.35;0.50;;;;;;;27.51;54.25;100325.25;5107454;28;20391;-73
2022/06/06 01:25:12;;;;;;;3.17;0.50;;;;;;;27.48;54.05;100347.19;5102311;28;20054;-72
2022/06/06 01:27:59;;;;;;;1.33;0.50;;;;;;;27.46;53.95;100365.38;5055185;28;20044;-72
2022/06/06 01:30:35;;;;;;;3.67;0.82;;;;;;;27.47;53.80;100388.38;5101217;28;20038;-73
2022/06/06 01:33:02;;;;;;;1.00;0.55;;;;;;;27.48;54.07;100390.00;5101041;28;20035;-73
2022/06/06 01:35:39;;;;;;;3.83;0.90;;;;;;;27.47;53.59;100375.81;5099666;28;20026;-72
2022/06/06 01:38:05;;;;;;;3.95;0.85;;;;;;;27.46;53.59;100358.13;5106655;28;20031;-72
2022/06/06 01:41:03;;;;;;;3.13;0.90;;;;;;;27.43;53.88;100362.13;5102060;28;20036;-72
2022/06/06 01:43:40;;;;;;;4.40;0.77;;;;;;;27.44;53.48;100365.63;5080258;28;20464;-72
2022/06/06 01:46:09;;;;;;;1.00;0.70;;;;;;;27.44;53.70;100349.56;5101839;28;20031;-73
2022/06/06 01:48:39;;;;;;;1.90;0.88;;;;;;;27.44;53.65;100342.34;5107338;28;20039;-71
2022/06/06 01:51:10;;;;;;;1.08;0.52;;;;;;;27.44;53.60;100345.03;5100545;28;20415;-71
2022/06/06 01:53:37;;;;;;;2.50;0.70;;;;;;;27.45;53.33;100343.16;5105769;28;20435;-71
2022/06/06 01:56:05;;;;;;;1.80;0.77;;;;;;;27.46;53.27;100352.78;5106949;28;20023;-71
2022/06/06 01:58:32;;;;;;;3.30;0.82;;;;;;;27.46;53.54;100366.16;5106108;28;20019;-71
2022/06/06 02:00:58;;;;;;;3.83;0.80;;;;;;;27.46;53.44;100370.72;5102813;28;20468;-73
2022/06/06 02:03:23;;;;;;;2.35;0.70;;;;;;;27.47;53.55;100364.28;5105282;28;20039;-72
2022/06/06 02:05:49;;;;;;;3.40;0.70;;;;;;;27.47;53.59;100366.97;5105804;28;20032;-72
2022/06/06 02:08:15;;;;;;;2.63;0.63;;;;;;;27.48;53.15;100371.25;5107140;28;20443;-71
2022/06/06 02:10:42;;;;;;;2.45;0.63;;;;;;;27.49;53.02;100370.19;5105860;28;20047;-71
2022/06/06 02:13:07;;;;;;;3.22;0.70;;;;;;;27.50;53.26;100377.16;5106992;28;20434;-72
2022/06/06 02:15:33;;;;;;;1.65;0.50;;;;;;;27.51;53.04;100378.78;5085560;28;20066;-72
2022/06/06 02:17:59;;;;;;;2.00;0.60;;;;;;;27.50;53.27;100380.63;5104830;28;20069;-71
2022/06/06 02:20:28;;;;;;;2.78;0.60;;;;;;;27.52;52.97;100385.75;5103693;28;20032;-72
2022/06/06 02:22:53;;;;;;;3.00;0.55;;;;;;;27.52;52.91;100380.38;5105317;28;20352;-73
2022/06/06 02:25:20;;;;;;;2.00;0.70;;;;;;;27.51;53.01;100384.13;5102742;28;20024;-71
2022/06/06 02:27:45;;;;;;;3.95;0.80;;;;;;;27.51;52.84;100389.47;5107162;28;20030;-71
2022/06/06 02:30:14;;;;;;;3.13;0.50;;;;;;;27.50;52.71;100396.69;5099372;28;20035;-72
2022/06/06 02:32:40;;;;;;;4.55;0.70;;;;;;;27.51;52.75;100405.53;5102434;28;20088;-72
2022/06/06 02:35:13;;;;;;;1.55;0.60;;;;;;;27.51;53.04;100405.53;5104927;28;20023;-72
2022/06/06 02:37:39;;;;;;;2.25;0.55;;;;;;;27.49;52.71;100403.09;5103149;28;20391;-72
2022/06/06 02:40:09;;;;;;;1.23;0.70;;;;;;;27.51;53.13;100406.34;5106164;28;20114;-71
2022/06/06 02:42:36;;;;;;;1.67;0.60;;;;;;;27.49;52.91;100400.44;5102830;28;20023;-71
2022/06/06 02:45:02;;;;;;;2.20;0.60;;;;;;;27.50;53.05;100401.25;5102962;28;20029;-72
2022/06/06 02:47:29;;;;;;;0.75;0.50;;;;;;;27.51;53.15;100395.63;5105347;28;20030;-71
2022/06/06 02:49:54;;;;;;;1.35;0.50;;;;;;;27.51;52.91;100394.81;5105272;28;20118;-71
2022/06/06 02:52:20;;;;;;;1.45;0.50;;;;;;;27.51;52.69;100398.31;5100421;28;20032;-71
2022/06/06 02:54:46;;;;;;;1.48;0.50;;;;;;;27.50;53.00;100394.03;5107227;28;20035;-72
2022/06/06 02:57:11;;;;;;;1.85;0.50;;;;;;;27.51;52.64;100394.81;5105339;28;20020;-71
2022/06/06 02:59:38;;;;;;;1.85;0.50;;;;;;;27.50;53.04;100402.06;5104776;28;20043;-72
2022/06/06 03:02:03;;;;;;;2.33;0.60;;;;;;;27.50;53.00;100407.41;5107919;28;20084;-71
2022/06/06 03:04:30;;;;;;;1.70;0.75;;;;;;;27.51;52.75;100411.69;5102673;28;20123;-72
2022/06/06 03:07:04;;;;;;;0.77;0.40;;;;;;;27.50;52.83;100415.44;5107117;28;20061;-71
2022/06/06 03:09:54;;;;;;;1.27;0.60;;;;;;;27.49;52.76;100411.13;5110604;28;20491;-72
2022/06/06 03:12:53;;;;;;;1.70;0.52;;;;;;;27.48;53.02;100412.19;5098161;28;20427;-72
2022/06/06 03:15:39;;;;;;;3.50;0.60;;;;;;;27.49;52.74;100418.34;5082698;28;20240;-72
2022/06/06 03:21:26;;;;;;;1.40;0.70;;;;;;;27.52;52.72;100407.94;5091478;28;20202;-72
2022/06/06 03:24:26;;;;;;;2.58;0.40;;;;;;;27.52;52.81;100423.19;5087637;28;20492;-71
2022/06/06 03:27:06;;;;;;;4.68;0.70;;;;;;;27.52;52.80;100412.50;5091668;28;20040;-72
2022/06/06 03:29:46;;;;;;;1.38;0.40;;;;;;;27.49;52.92;100421.84;5090264;28;20388;-72
2022/06/06 03:32:17;;;;;;;1.42;0.43;;;;;;;27.50;52.78;100420.78;5082873;28;20075;-71
2022/06/06 03:35:01;;;;;;;2.78;0.50;;;;;;;27.49;52.65;100415.69;5089097;28;20028;-72
2022/06/06 03:37:39;;;;;;;1.80;0.40;;;;;;;27.48;52.78;100416.75;5084253;28;20563;-72
2022/06/06 03:40:13;;;;;;;1.85;0.43;;;;;;;27.48;52.83;100419.41;5086949;28;20055;-73
2022/06/06 03:42:54;;;;;;;2.40;0.68;;;;;;;27.47;52.75;100417.81;5087653;28;20066;-72
2022/06/06 03:45:47;;;;;;;3.22;0.57;;;;;;;27.44;52.95;100425.28;5083833;28;20039;-72
2022/06/06 03:49:01;;;;;;;1.42;0.40;;;;;;;27.43;52.95;100426.34;5086051;28;20497;-72
2022/06/06 03:52:01;;;;;;;1.85;0.50;;;;;;;27.40;52.73;100437.59;5080689;28;20218;-72
2022/06/06 03:54:41;;;;;;;2.30;0.40;;;;;;;27.41;52.70;100433.03;5086475;28;20028;-71
2022/06/06 03:57:18;;;;;;;1.00;0.30;;;;;;;27.40;52.87;100437.59;5083890;28;20059;-73
2022/06/06 03:59:48;;;;;;;0.98;0.40;;;;;;;27.42;52.59;100429.28;5087038;28;20032;-72
2022/06/06 04:02:19;;;;;;;1.33;0.45;;;;;;;27.42;52.56;100439.97;5086852;28;20028;-72
2022/06/06 04:04:45;;;;;;;2.95;0.50;;;;;;;27.41;52.64;100441.06;5089521;28;20471;-72
2022/06/06 04:07:11;;;;;;;1.65;0.40;;;;;;;27.42;52.71;100445.31;5085571;28;20404;-71
2022/06/06 04:09:36;;;;;;;2.45;0.40;;;;;;;27.42;52.48;100446.13;5086902;28;20020;-71
2022/06/06 04:12:21;;;;;;;0.73;0.40;;;;;;;27.43;52.64;100453.09;5092505;28;20394;-71
2022/06/06 04:15:17;;;;;;;1.30;0.38;;;;;;;27.40;52.59;100459.00;5100881;28;20064;-73
2022/06/06 04:17:54;;;;;;;1.10;0.47;;;;;;;27.40;52.53;100448.28;5090392;28;20376;-72
2022/06/06 04:21:01;;;;;;;1.45;0.60;;;;;;;27.40;52.59;100464.34;5107533;28;20372;-71
2022/06/06 04:24:04;;;;;;;2.80;0.60;;;;;;;27.37;52.58;100459.50;5094518;28;20036;-72
2022/06/06 04:26:53;;;;;;;5.80;0.68;;;;;;;27.41;52.77;100468.59;5107384;28;20477;-72
2022/06/06 04:29:32;;;;;;;5.18;1.95;;;;;;;27.51;53.78;100467.06;5104596;28;20023;-72
2022/06/06 04:32:46;;;;;;;1.52;0.90;;;;;;;27.49;53.18;100466.53;5101382;28;20035;-73
2022/06/06 04:35:36;;;;;;;3.38;0.80;;;;;;;27.44;52.35;100469.97;5035073;28;20041;-73
2022/06/06 04:38:28;;;;;;;2.50;0.50;;;;;;;27.39;50.60;100476.09;5039866;28;20086;-72
2022/06/06 04:41:35;;;;;;;2.05;0.50;;;;;;;27.37;50.34;100467.53;5041688;28;20033;-72
2022/06/06 04:44:07;;;;;;;6.63;0.60;;;;;;;27.36;50.50;100479.28;5037827;28;20159;-72
2022/06/06 04:46:42;;;;;;;4.82;1.02;;;;;;;27.36;50.45;100473.94;5042414;28;20146;-71
2022/06/06 04:49:10;;;;;;;4.38;0.70;;;;;;;27.38;50.14;100471.81;5042803;28;20068;-73
2022/06/06 04:51:38;;;;;;;3.72;0.55;;;;;;;27.38;50.00;100469.13;5037270;28;20489;-72
2022/06/06 04:54:04;;;;;;;4.63;0.68;;;;;;;27.40;50.33;100467.00;5043692;28;20063;-71
2022/06/06 04:56:32;;;;;;;3.80;0.65;;;;;;;27.41;50.17;100465.91;5041108;28;20036;-71
2022/06/06 04:59:01;;;;;;;2.78;0.50;;;;;;;27.40;49.53;100475.03;5038501;28;20096;-72
2022/06/06 05:01:27;;;;;;;3.53;0.50;;;;;;;27.37;48.99;100470.19;5041359;28;20405;-72
2022/06/06 05:03:53;;;;;;;1.98;0.50;;;;;;;27.38;48.66;100471.00;5043839;28;20040;-73
2022/06/06 05:06:48;;;;;;;2.63;0.30;;;;;;;27.38;48.70;100476.34;5041597;28;20110;-72
2022/06/06 05:09:16;;;;;;;2.10;0.57;;;;;;;27.38;48.79;100489.72;5042550;28;20045;-72
2022/06/06 05:12:03;;;;;;;5.47;0.60;;;;;;;27.38;48.72;100482.50;5080643;28;20056;-72
2022/06/06 05:14:49;;;;;;;2.67;0.32;;;;;;;27.38;48.46;100487.06;5100362;28;20035;-72
2022/06/06 05:17:39;;;;;;;2.83;0.35;;;;;;;27.38;48.51;100487.88;5104956;28;20320;-73
2022/06/06 05:20:25;;;;;;;1.80;0.40;;;;;;;27.37;48.71;100494.28;5107660;28;20392;-72
2022/06/06 05:23:15;;;;;;;2.15;0.55;;;;;;;27.39;48.38;100494.03;5105117;28;20032;-73
2022/06/06 05:25:56;;;;;;;0.65;0.30;;;;;;;27.40;48.87;100495.63;5107337;28;20130;-73
2022/06/06 05:28:30;;;;;;;4.50;0.50;;;;;;;27.40;48.55;100501.00;5102097;28;20114;-73
2022/06/06 05:31:20;;;;;;;2.25;0.43;;;;;;;27.39;48.67;100507.41;5105594;28;20032;-72
2022/06/06 05:34:00;;;;;;;2.35;0.50;;;;;;;27.39;49.06;100492.16;5105603;28;20028;-72
2022/06/06 05:36:52;;;;;;;1.73;0.63;;;;;;;27.40;49.30;100511.69;5096712;28;20036;-73
2022/06/06 05:39:32;;;;;;;5.15;0.68;;;;;;;27.40;49.28;100509.81;5101050;28;20043;-74
2022/06/06 05:42:12;;;;;;;3.03;0.60;;;;;;;27.41;49.26;100506.06;5105924;28;20092;-73
2022/06/06 05:44:54;;;;;;;5.35;0.80;;;;;;;27.39;49.14;100520.78;5107146;28;20088;-72
2022/06/06 05:47:27;;;;;;;2.45;0.52;;;;;;;27.31;49.33;100519.38;5108031;28;20031;-73
2022/06/06 05:50:14;;;;;;;3.95;0.60;;;;;;;27.32;49.70;100520.97;5107136;28;20479;-73
2022/06/06 05:52:55;;;;;;;5.20;0.90;;;;;;;27.28;49.10;100522.53;5102291;28;20046;-73
2022/06/06 05:55:39;;;;;;;5.32;0.70;;;;;;;27.28;49.15;100517.19;5102043;28;20032;-72
2022/06/06 05:58:23;;;;;;;2.97;0.45;;;;;;;27.29;49.19;100520.69;5107238;28;20034;-72
2022/06/06 06:01:22;;;;;;;2.75;0.60;;;;;;;27.27;48.26;100520.13;5104531;28;20660;-73
2022/06/06 06:04:20;;;;;;;2.08;0.50;;;;;;;27.27;48.03;100520.94;5101841;28;20032;-72
2022/06/06 06:07:00;;;;;;;2.90;0.50;;;;;;;27.29;48.28;100518.81;5099967;28;20459;-73
2022/06/06 06:09:38;;;;;;;3.65;0.73;;;;;;;27.27;47.84;100528.94;5098201;28;20466;-73
2022/06/06 06:12:11;;;;;;;3.08;0.45;;;;;;;27.22;47.62;100518.19;5095616;28;20122;-72
2022/06/06 06:14:51;;;;;;;3.75;0.60;;;;;;;27.23;48.14;100517.13;5103239;28;20072;-72
2022/06/06 06:17:24;;;;;;;5.97;0.50;;;;;;;27.23;47.80;100533.19;5103350;28;20508;-72
2022/06/06 06:20:02;;;;;;;4.07;0.40;;;;;;;27.22;47.16;100530.78;5101207;28;20062;-73
2022/06/06 06:22:36;;;;;;;6.80;0.47;;;;;;;27.22;45.93;100534.25;5103336;28;20041;-73
2022/06/06 06:25:03;;;;;;;7.50;0.50;;;;;;;27.20;45.95;100531.03;5104229;28;20028;-73
2022/06/06 06:27:31;;;;;;;2.65;0.40;;;;;;;27.19;45.85;100526.72;5092205;28;20201;-73
2022/06/06 06:29:57;;;;;;;1.67;0.32;;;;;;;27.21;46.24;100521.94;5105739;28;20379;-73
2022/06/06 06:32:38;;;;;;;1.50;0.20;;;;;;;27.21;45.33;100524.63;5106633;28;20046;-73
2022/06/06 06:35:21;;;;;;;3.38;0.20;;;;;;;27.22;45.26;100531.56;5101131;28;20492;-74
2022/06/06 06:38:03;;;;;;;2.60;0.30;;;;;;;27.20;45.39;100520.31;5107670;28;20042;-74
2022/06/06 06:40:54;;;;;;;4.55;0.30;;;;;;;27.19;44.96;100526.72;5111141;28;20094;-74
2022/06/06 06:43:20;;;;;;;1.52;0.30;;;;;;;27.23;44.90;100519.00;5109830;28;20092;-73
2022/06/06 06:45:51;;;;;;;2.63;0.20;;;;;;;27.25;45.19;100531.06;5111338;28;20024;-74
2022/06/06 06:48:47;;;;;;;3.55;0.30;;;;;;;27.23;44.75;100535.88;5108038;28;20043;-73
2022/06/06 06:51:26;;;;;;;1.85;0.20;;;;;;;27.22;44.22;100520.88;5080927;28;20048;-74
2022/06/06 06:54:12;;;;;;;2.95;0.32;;;;;;;27.23;44.57;100533.19;5104582;28;20032;-74
2022/06/06 06:56:55;;;;;;;0.82;0.20;;;;;;;27.19;44.74;100537.44;5108612;28;20035;-74
2022/06/06 06:59:40;;;;;;;2.40;0.17;;;;;;;27.17;44.42;100530.72;5108812;27;20027;-74
2022/06/06 07:10:52;;;;;;;1.95;0.20;;;;;;;27.19;43.95;100528.59;5110844;28;20050;-74
2022/06/06 07:13:34;;;;;;;1.08;0.17;;;;;;;27.20;43.62;100533.69;5107066;28;20051;-74
2022/06/06 07:16:16;;;;;;;2.05;0.10;;;;;;;27.21;43.25;100529.16;5109261;28;20058;-73
2022/06/06 07:18:43;;;;;;;1.60;0.20;;;;;;;27.20;43.11;100522.19;5106512;28;20073;-72
2022/06/06 07:21:12;;;;;;;0.95;0.10;;;;;;;27.19;42.86;100526.72;5108851;28;20398;-72
2022/06/06 07:23:41;;;;;;;3.13;0.20;;;;;;;27.19;43.14;100526.72;5107769;28;20108;-72
2022/06/06 07:26:07;;;;;;;1.55;0.20;;;;;;;27.17;42.62;100518.16;5106725;28;20106;-72
2022/06/06 07:28:33;;;;;;;1.13;0.17;;;;;;;27.15;42.57;100514.91;5106850;28;20141;-73
2022/06/06 07:31:11;;;;;;;1.10;0.20;;;;;;;27.16;42.59;100521.06;5105007;28;20438;-72
2022/06/06 07:34:08;;;;;;;2.25;0.20;;;;;;;27.16;41.83;100510.38;5088142;28;20487;-73
2022/06/06 07:37:00;;;;;;;3.75;0.20;;;;;;;27.17;42.20;100499.44;5106591;28;20040;-73
2022/06/06 07:40:03;;;;;;;1.40;0.10;;;;;;;27.16;41.49;100511.19;5095170;28;20123;-73
2022/06/06 07:42:48;;;;;;;0.93;0.10;;;;;;;27.16;41.76;100511.19;5104924;28;20031;-72
2022/06/06 07:45:28;;;;;;;0.65;0.10;;;;;;;27.16;41.41;100513.84;5106410;28;20032;-72
2022/06/06 07:48:03;;;;;;;1.20;0.10;;;;;;;27.18;41.69;100513.59;5100227;28;20126;-73
2022/06/06 07:50:45;;;;;;;0.75;0.10;;;;;;;27.19;41.60;100520.56;5103269;28;20040;-72
2022/06/06 07:53:16;;;;;;;1.48;0.10;;;;;;;27.21;41.78;100526.47;5104389;28;20036;-72
2022/06/06 07:55:51;;;;;;;0.68;0.10;;;;;;;27.23;40.74;100522.50;5100097;28;20054;-72
2022/06/06 07:58:23;;;;;;;1.02;0.20;;;;;;;27.22;40.86;100520.88;5110102;28;20050;-72
2022/06/06 08:01:08;;;;;;;0.82;0.10;;;;;;;27.23;40.54;100516.34;5109672;28;20106;-72
2022/06/06 08:03:34;;;;;;;1.05;0.10;;;;;;;27.24;41.07;100524.09;5106371;28;20160;-73
2022/06/06 08:06:18;;;;;;;0.40;0.10;;;;;;;27.25;40.49;100522.25;5109736;28;20024;-72
2022/06/06 08:08:50;;;;;;;1.57;0.10;;;;;;;27.23;39.77;100519.81;5108148;28;20091;-73
2022/06/06 08:11:56;;;;;;;0.55;0.10;;;;;;;27.21;39.15;100521.94;5109434;28;20034;-71
2022/06/06 08:14:37;;;;;;;0.82;0.10;;;;;;;27.22;39.75;100526.22;5105272;28;20070;-71
2022/06/06 08:17:15;;;;;;;1.38;0.10;;;;;;;27.25;39.91;100528.41;5100523;28;20042;-72
2022/06/06 08:20:14;;;;;;;1.35;0.10;;;;;;;27.23;39.50;100527.84;5108696;28;20507;-72
2022/06/06 08:22:42;;;;;;;0.60;0.10;;;;;;;27.26;39.91;100527.34;5109384;28;20040;-73
2022/06/06 08:25:11;;;;;;;0.55;0.10;;;;;;;27.28;38.84;100530.56;5108756;28;20383;-72
2022/06/06 08:27:38;;;;;;;2.35;0.15;;;;;;;27.26;37.75;100530.00;5108541;28;20042;-72
2022/06/06 08:30:04;;;;;;;0.88;0.10;;;;;;;27.26;38.19;100532.69;5109604;28;20030;-72
2022/06/06 08:32:29;;;;;;;1.38;0.10;;;;;;;27.27;38.50;100539.66;5109397;28;20134;-72
2022/06/06 08:34:55;;;;;;;3.83;0.10;;;;;;;27.29;38.61;100531.38;5107380;28;20111;-72
2022/06/06 08:37:48;;;;;;;2.72;0.20;;;;;;;27.27;38.58;100534.31;5108985;28;20024;-72
2022/06/06 08:40:51;;;;;;;0.68;0.10;;;;;;;27.25;38.15;100538.28;5100947;28;20458;-72
2022/06/06 08:44:04;;;;;;;3.30;0.10;;;;;;;27.24;38.37;100529.47;5108634;28;20043;-72
2022/06/06 08:46:45;;;;;;;1.48;0.10;;;;;;;27.24;38.68;100524.09;5080605;28;20130;-72
2022/06/06 08:52:58;;;;;;;2.08;0.28;;;;;;;27.22;38.19;100514.72;5098694;28;20081;-72
2022/06/06 08:55:49;;;;;;;1.15;0.10;;;;;;;27.23;37.37;100519.00;5100658;28;20133;-73
2022/06/06 08:58:42;;;;;;;2.10;0.10;;;;;;;27.22;37.37;100515.53;5109004;28;20028;-72
2022/06/06 09:01:55;;;;;;;0.75;0.10;;;;;;;27.21;37.28;100516.59;5107813;28;20032;-72
2022/06/06 09:04:45;;;;;;;0.60;0.10;;;;;;;27.23;37.48;100516.34;5103651;28;20138;-72
2022/06/06 09:07:13;;;;;;;1.25;0.10;;;;;;;27.23;37.64;100511.78;5107227;28;20028;-72
2022/06/06 09:10:09;;;;;;;0.80;0.10;;;;;;;27.25;37.68;100516.88;5107164;28;20050;-72
2022/06/06 09:12:50;;;;;;;0.55;0.10;;;;;;;27.26;37.64;100522.00;5102842;28;20084;-72
2022/06/06 09:15:58;;;;;;;0.28;0.00;;;;;;;27.26;38.16;100516.63;5107966;28;20027;-72
2022/06/06 09:18:57;;;;;;;0.30;0.10;;;;;;;27.27;37.95;100517.44;5021290;28;20037;-72
2022/06/06 09:21:55;;;;;;;0.20;0.10;;;;;;;27.25;38.09;100512.34;5021818;28;20049;-72
2022/06/06 09:24:30;;;;;;;0.30;0.10;;;;;;;27.28;38.29;100508.34;5020660;28;20033;-72
2022/06/06 09:27:10;;;;;;;1.55;0.00;;;;;;;27.30;38.37;100500.88;5017504;28;20033;-73
2022/06/06 09:29:54;;;;;;;1.27;0.10;;;;;;;27.30;38.65;100498.22;5020894;28;20045;-73
2022/06/06 09:32:38;;;;;;;0.43;0.10;;;;;;;27.29;38.70;100508.09;5020628;28;20038;-73
2022/06/06 09:35:31;;;;;;;0.57;0.10;;;;;;;27.29;38.80;100508.09;5020126;28;20037;-73
2022/06/06 09:38:22;;;;;;;3.03;0.10;;;;;;;27.29;37.18;100505.44;5018735;28;20049;-72
2022/06/06 09:41:21;;;;;;;0.52;0.10;;;;;;;27.31;36.16;100499.84;5020809;28;20124;-73
2022/06/06 09:43:55;;;;;;;1.50;0.10;;;;;;;27.35;36.09;100515.13;5021289;28;20059;-73
2022/06/06 09:46:53;;;;;;;1.80;0.10;;;;;;;27.36;36.04;100522.09;5023144;28;20033;-73
2022/06/06 09:49:56;;;;;;;0.60;0.00;;;;;;;27.36;36.11;100526.63;5022199;28;20045;-73
2022/06/06 09:52:33;;;;;;;1.05;0.03;;;;;;;27.35;36.76;100520.47;5021512;28;20091;-73
2022/06/06 09:59:02;;;;;;;0.23;0.00;;;;;;;27.39;36.71;100521.59;5106734;28;20462;-73
2022/06/06 10:01:50;;;;;;;1.50;0.10;;;;;;;27.40;36.77;100517.03;5105202;28;20157;-73
2022/06/06 10:04:18;;;;;;;0.20;0.10;;;;;;;27.42;37.28;100521.03;5102686;28;20036;-73
2022/06/06 10:07:12;;;;;;;0.30;0.10;;;;;;;27.49;35.80;100517.34;5104376;28;20050;-73
2022/06/06 10:10:11;;;;;;;0.10;0.00;;;;;;;27.51;36.10;100518.72;5097354;28;20036;-73
2022/06/06 10:13:03;;;;;;;0.93;0.10;;;;;;;27.49;36.08;100515.47;5108963;28;20055;-73
2022/06/06 10:15:38;;;;;;;0.77;0.10;;;;;;;27.50;36.45;100516.28;5108285;27;20048;-72
2022/06/06 10:18:22;;;;;;;1.10;0.10;;;;;;;27.50;36.96;100514.44;5111005;28;20105;-73
2022/06/06 10:20:47;;;;;;;1.55;0.10;;;;;;;27.49;36.98;100509.31;5101017;28;20039;-73
2022/06/06 10:23:18;;;;;;;2.25;0.10;;;;;;;27.49;37.03;100515.47;5108902;28;20027;-72
2022/06/06 10:26:21;;;;;;;1.02;0.00;;;;;;;27.52;37.14;100517.66;5110503;28;20081;-72
2022/06/06 10:29:11;;;;;;;0.40;0.05;;;;;;;27.52;37.57;100509.63;5102605;28;20028;-73
2022/06/06 10:32:19;;;;;;;0.73;0.17;;;;;;;27.51;37.62;100512.56;5084397;28;20048;-73
2022/06/06 10:35:14;;;;;;;1.23;0.10;;;;;;;27.54;37.33;100517.41;5091118;28;20119;-73
2022/06/06 10:38:13;;;;;;;1.98;0.10;;;;;;;27.54;37.62;100515.53;5088154;28;20110;-73
2022/06/06 10:40:50;;;;;;;2.47;0.10;;;;;;;27.57;37.47;100514.22;5087936;28;20064;-73
2022/06/06 10:43:47;;;;;;;0.68;0.10;;;;;;;27.55;37.50;100511.78;5087791;28;20077;-73
2022/06/06 10:46:18;;;;;;;1.80;0.15;;;;;;;27.57;37.56;100508.88;5084272;28;20036;-73
2022/06/06 10:49:08;;;;;;;1.88;0.10;;;;;;;27.58;37.42;100508.59;5082294;28;20396;-73
2022/06/06 10:52:14;;;;;;;1.52;0.10;;;;;;;27.58;37.50;100511.28;5089692;28;20732;-73
2022/06/06 10:54:52;;;;;;;;;;;;;;;27.54;37.48;100517.41;5086176;28;20517;-74
2022/06/06 10:57:20;;;;;;;0.88;0.10;;;;;;;27.56;37.83;100509.94;5089834;28;19916;-73
2022/06/06 10:59:45;;;;;;;0.55;0.10;;;;;;;27.59;37.36;100509.44;5084508;28;20033;-73
2022/06/06 11:02:32;;;;;;;0.30;0.10;;;;;;;27.59;37.47;100509.44;5074778;28;20090;-73
2022/06/06 11:05:16;;;;;;;0.40;0.10;;;;;;;27.62;37.46;100516.97;5087919;28;20032;-73
2022/06/06 11:08:19;;;;;;;1.70;0.30;;;;;;;27.62;37.04;100516.97;5084983;28;20035;-73
2022/06/06 11:11:08;;;;;;;1.13;0.10;;;;;;;27.64;37.10;100512.16;5063919;28;20113;-73
2022/06/06 11:14:01;;;;;;;0.35;0.10;;;;;;;27.62;37.02;100511.63;5089743;28;20056;-72
2022/06/06 11:16:48;;;;;;;2.17;0.10;;;;;;;27.64;37.49;100507.63;5091585;28;20415;-73
2022/06/06 11:19:23;;;;;;;0.90;0.10;;;;;;;27.66;37.16;100507.38;5089658;28;20689;-73
2022/06/06 11:21:57;;;;;;;1.65;0.10;;;;;;;27.68;37.26;100500.69;5088209;28;20038;-73
2022/06/06 11:24:54;;;;;;;0.77;0.10;;;;;;;27.67;37.36;100495.59;5085543;28;20499;-73
2022/06/06 11:27:30;;;;;;;0.45;0.10;;;;;;;27.68;37.36;100494.53;5084447;28;20036;-74
2022/06/06 11:30:05;;;;;;;1.80;0.15;;;;;;;27.80;39.26;100495.16;5089716;28;20039;-73
2022/06/06 11:33:04;;;;;;;4.72;0.30;;;;;;;27.96;38.80;100496.84;5088465;28;20136;-74
2022/06/06 11:35:47;;;;;;;3.40;0.10;;;;;;;27.92;39.02;100493.06;5085930;28;20040;-73
2022/06/06 11:38:44;;;;;;;2.28;0.10;;;;;;;27.87;39.46;100484.25;5068379;28;20063;-73
2022/06/06 11:41:12;;;;;;;0.60;0.10;;;;;;;27.84;39.67;100490.91;5085758;28;20088;-74
2022/06/06 11:44:08;;;;;;;1.75;0.20;;;;;;;27.82;39.67;100484.19;5078549;28;20036;-73
2022/06/06 11:47:06;;;;;;;1.38;0.00;;;;;;;27.82;40.02;100478.84;5075515;28;20402;-73
2022/06/06 11:49:52;;;;;;;0.68;0.10;;;;;;;27.82;40.14;100474.28;5086744;28;20040;-73
2022/06/06 11:52:42;;;;;;;0.20;0.03;;;;;;;27.83;39.92;100478.59;5087579;28;20042;-73
2022/06/06 11:55:20;;;;;;;0.57;0.10;;;;;;;27.86;40.66;100471.91;5076250;28;20529;-73
2022/06/06 11:57:55;;;;;;;1.23;0.10;;;;;;;27.83;40.35;100467.06;5088321;28;20058;-74
2022/06/06 12:00:48;;;;;;;0.20;0.00;;;;;;;27.82;38.46;100470.81;5088483;28;20051;-74
2022/06/06 12:03:32;;;;;;;1.80;0.10;;;;;;;27.84;37.42;100466.81;5086252;28;20488;-73
2022/06/06 12:06:24;;;;;;;0.75;0.10;;;;;;;27.82;35.99;100460.91;5083198;28;20502;-74
2022/06/06 12:09:27;;;;;;;1.73;0.10;;;;;;;27.80;35.73;100463.03;5085113;28;20094;-74
2022/06/06 12:12:01;;;;;;;1.10;0.10;;;;;;;27.81;35.65;100463.84;5086927;28;20056;-73
2022/06/06 12:15:00;;;;;;;1.52;0.10;;;;;;;27.84;35.76;100464.13;5069807;28;20484;-73
2022/06/06 12:18:10;;;;;;;2.08;0.10;;;;;;;27.87;35.87;100460.13;5082623;28;20245;-74
2022/06/06 12:21:09;;;;;;;2.92;0.10;;;;;;;27.89;36.23;100455.31;5058189;28;20450;-74
2022/06/06 12:24:19;;;;;;;2.60;0.10;;;;;;;27.93;35.71;100457.22;5085184;28;20043;-74
2022/06/06 12:27:03;;;;;;;0.50;0.15;;;;;;;27.96;35.78;100454.00;5083694;28;20487;-75
2022/06/06 12:30:05;;;;;;;0.95;0.10;;;;;;;27.96;35.72;100458.56;5086059;28;20082;-73
2022/06/06 12:32:34;;;;;;;1.60;0.10;;;;;;;27.96;35.47;100451.34;5069645;28;20044;-73
2022/06/06 12:35:08;;;;;;;0.20;0.00;;;;;;;27.99;35.37;100445.47;5073610;28;20134;-73
2022/06/06 12:37:55;;;;;;;2.10;0.10;;;;;;;27.99;35.50;100445.47;5084739;28;20051;-73
2022/06/06 12:40:20;;;;;;;0.17;0.10;;;;;;;27.99;35.54;100440.09;5080876;28;20628;-73
2022/06/06 12:42:58;;;;;;;0.98;0.10;;;;;;;28.01;35.49;100435.28;5080713;28;20028;-73
2022/06/06 12:46:00;;;;;;;1.15;0.10;;;;;;;28.00;35.75;100431.00;5087910;28;20123;-73